createdAt,value
2023-10-01T00:01:42.299Z,4.80
2023-10-01T00:04:10.629Z,4.90
2023-10-01T00:06:38.979Z,5.25
2023-10-01T00:09:07.057Z,5.13
2023-10-01T00:11:38.800Z,5.32
2023-10-01T00:14:22.023Z,4.97
2023-10-01T00:16:54.204Z,4.72
2023-10-01T00:19:22.427Z,5.90
2023-10-01T00:21:50.472Z,5.60
2023-10-01T00:24:18.439Z,5.35
2023-10-01T00:26:47.209Z,4.93
2023-10-01T00:29:15.220Z,5.32
2023-10-01T00:31:44.059Z,5.15
2023-10-01T00:34:12.128Z,5.57
2023-10-01T00:36:40.181Z,5.13
2023-10-01T00:39:08.290Z,5.70
2023-10-01T00:41:36.253Z,5.05
2023-10-01T00:44:04.717Z,5.65
2023-10-01T00:46:33.741Z,5.63
2023-10-01T00:49:05.533Z,5.35
2023-10-01T00:51:37.863Z,5.28
2023-10-01T00:54:06.301Z,5.90
2023-10-01T00:56:35.167Z,5.35
2023-10-01T00:59:04.213Z,6.25
2023-10-01T01:01:35.210Z,5.10
2023-10-01T01:04:10.138Z,6.18
2023-10-01T01:06:40.487Z,5.80
2023-10-01T01:09:12.328Z,5.90
2023-10-01T01:11:40.620Z,5.78
2023-10-01T01:14:08.796Z,6.03
2023-10-01T01:16:36.775Z,5.80
2023-10-01T01:19:04.982Z,6.13
2023-10-01T01:21:33.304Z,6.07
2023-10-01T01:24:01.296Z,5.20
2023-10-01T01:26:29.116Z,6.28
2023-10-01T01:28:59.642Z,6.05
2023-10-01T01:31:29.844Z,5.53
2023-10-01T01:33:58.843Z,5.95
2023-10-01T01:36:31.251Z,6.45
2023-10-01T01:39:11.628Z,5.72
2023-10-01T01:41:44.530Z,6.60
2023-10-01T01:44:16.753Z,6.65
2023-10-01T01:47:01.095Z,6.90
2023-10-01T01:49:29.523Z,6.80
2023-10-01T01:52:01.409Z,6.35
2023-10-01T01:54:31.033Z,7.47
2023-10-01T01:56:59.854Z,6.47
2023-10-01T01:59:29.424Z,6.93
2023-10-01T02:01:58.545Z,6.65
2023-10-01T02:04:28.458Z,7.10
2023-10-01T02:06:57.632Z,6.55
2023-10-01T02:09:26.835Z,6.95
2023-10-01T02:11:55.761Z,7.82
2023-10-01T02:14:33.003Z,7.47
2023-10-01T02:17:17.062Z,7.25
2023-10-01T02:19:48.602Z,6.65
2023-10-01T02:22:20.243Z,7.40
2023-10-01T02:24:57.947Z,7.65
2023-10-01T02:27:29.759Z,7.68
2023-10-01T02:30:15.321Z,7.30
2023-10-01T02:33:02.372Z,7.88
2023-10-01T02:35:36.739Z,8.25
2023-10-01T02:38:08.980Z,7.90
2023-10-01T02:40:41.504Z,8.43
2023-10-01T02:43:09.682Z,8.05
2023-10-01T02:45:42.910Z,7.97
2023-10-01T02:48:20.270Z,7.72
2023-10-01T02:50:56.019Z,7.65
2023-10-01T02:53:24.754Z,7.82
2023-10-01T02:55:53.941Z,7.13
2023-10-01T02:58:29.643Z,7.80
2023-10-01T03:00:58.145Z,7.30
2023-10-01T03:03:39.888Z,7.38
2023-10-01T03:06:11.451Z,7.85
2023-10-01T03:08:50.236Z,9.07
2023-10-01T03:11:18.430Z,8.35
2023-10-01T03:13:49.544Z,8.68
2023-10-01T03:16:36.466Z,9.02
2023-10-01T03:19:23.179Z,8.38
2023-10-01T03:22:09.486Z,8.35
2023-10-01T03:24:39.882Z,8.40
2023-10-01T03:27:43.178Z,8.60
2023-10-01T03:30:22.381Z,8.15
2023-10-01T03:32:50.383Z,8.13
2023-10-01T03:35:22.342Z,7.57
2023-10-01T03:38:10.397Z,8.88
2023-10-01T03:40:58.721Z,9.23
2023-10-01T03:43:32.950Z,8.45
2023-10-01T03:46:08.390Z,8.50
2023-10-01T03:49:05.967Z,8.63
2023-10-01T03:51:53.744Z,7.97
2023-10-01T03:54:28.041Z,9.38
2023-10-01T03:56:59.338Z,8.80
2023-10-01T03:59:29.205Z,9.18
2023-10-01T04:02:00.464Z,9.40
2023-10-01T04:04:29.476Z,8.68
2023-10-01T04:07:01.151Z,8.85
2023-10-01T04:09:29.451Z,9.10
2023-10-01T04:12:15.931Z,8.90
2023-10-01T04:14:50.390Z,9.38
2023-10-01T04:17:21.702Z,10.35
2023-10-01T04:19:51.086Z,8.50
2023-10-01T04:22:19.444Z,9.65
2023-10-01T04:25:02.205Z,9.18
2023-10-01T04:27:31.548Z,10.95
2023-10-01T04:30:01.578Z,9.93
2023-10-01T04:32:29.975Z,10.02
2023-10-01T04:35:02.988Z,9.98
2023-10-01T04:37:49.919Z,14.85
2023-10-01T04:40:33.310Z,12.48
2023-10-01T04:43:04.614Z,10.00
2023-10-01T04:45:37.874Z,9.60
2023-10-01T04:50:47.800Z,16.85
2023-10-01T04:53:16.089Z,12.98
2023-10-01T04:55:44.623Z,9.32
2023-10-01T04:58:16.879Z,9.27
2023-10-01T05:00:48.416Z,9.68
2023-10-01T05:03:17.662Z,10.00
2023-10-01T05:05:46.381Z,12.70
2023-10-01T05:08:14.317Z,10.60
2023-10-01T05:10:53.374Z,9.27
2023-10-01T05:13:22.177Z,8.77
2023-10-01T05:15:51.119Z,8.82
2023-10-01T05:18:19.203Z,14.15
2023-10-01T05:20:50.154Z,10.32
2023-10-01T05:23:18.531Z,8.90
2023-10-01T05:25:50.640Z,9.20
2023-10-01T05:28:25.186Z,10.00
2023-10-01T05:30:59.393Z,9.48
2023-10-01T05:33:28.699Z,9.57
2023-10-01T05:35:58.857Z,9.43
2023-10-01T05:38:30.143Z,9.82
2023-10-01T05:40:58.250Z,10.00
2023-10-01T05:43:29.122Z,8.68
2023-10-01T05:46:02.997Z,10.32
2023-10-01T05:48:33.853Z,9.75
2023-10-01T05:51:01.944Z,9.20
2023-10-01T05:53:30.373Z,10.02
2023-10-01T05:56:08.952Z,9.63
2023-10-01T05:58:37.503Z,9.90
2023-10-01T06:01:15.429Z,9.32
2023-10-01T06:03:44.320Z,9.85
2023-10-01T06:06:25.762Z,10.60
2023-10-01T06:09:00.890Z,11.07
2023-10-01T06:11:54.874Z,10.82
2023-10-01T06:14:48.991Z,10.18
2023-10-01T06:17:16.985Z,10.90
2023-10-01T06:19:45.088Z,10.15
2023-10-01T06:22:25.034Z,11.35
2023-10-01T06:24:53.224Z,11.80
2023-10-01T06:27:47.333Z,11.80
2023-10-01T06:30:25.558Z,13.18
2023-10-01T06:32:53.574Z,11.40
2023-10-01T06:35:23.511Z,10.20
2023-10-01T06:37:51.983Z,11.18
2023-10-01T06:40:32.319Z,11.70
2023-10-01T06:43:00.328Z,11.15
2023-10-01T06:45:40.775Z,11.93
2023-10-01T06:48:15.990Z,11.48
2023-10-01T06:50:51.268Z,10.13
2023-10-01T06:53:19.632Z,10.85
2023-10-01T06:55:48.715Z,11.57
2023-10-01T06:58:18.043Z,10.70
2023-10-01T07:00:46.481Z,10.48
2023-10-01T07:03:22.992Z,11.85
2023-10-01T07:05:57.802Z,10.75
2023-10-01T07:08:39.269Z,11.15
2023-10-01T07:11:13.523Z,10.52
2023-10-01T07:13:42.298Z,10.95
2023-10-01T07:16:10.761Z,11.55
2023-10-01T07:18:38.894Z,11.07
2023-10-01T07:21:13.402Z,11.40
2023-10-01T07:23:44.164Z,11.02
2023-10-01T07:26:14.210Z,11.80
2023-10-01T07:28:53.766Z,12.27
2023-10-01T07:31:23.906Z,12.27
2023-10-01T07:33:52.102Z,12.70
2023-10-01T07:36:21.079Z,12.32
2023-10-01T07:38:50.813Z,12.00
2023-10-01T07:41:24.024Z,12.15
2023-10-01T07:43:55.272Z,11.23
2023-10-01T07:46:23.280Z,11.88
2023-10-01T07:48:53.155Z,14.77
2023-10-01T07:51:32.305Z,11.88
2023-10-01T07:54:06.358Z,19.50
2023-10-01T07:57:02.298Z,11.07
2023-10-01T07:59:30.424Z,12.13
2023-10-01T08:02:17.235Z,11.15
2023-10-01T08:04:47.943Z,11.13
2023-10-01T08:07:19.969Z,11.15
2023-10-01T08:09:52.740Z,10.63
2023-10-01T08:12:30.847Z,10.85
2023-10-01T08:15:30.724Z,11.18
2023-10-01T08:18:18.763Z,12.15
2023-10-01T08:20:59.981Z,12.13
2023-10-01T08:23:32.834Z,11.63
2023-10-01T08:26:23.073Z,11.30
2023-10-01T08:28:58.910Z,11.88
2023-10-01T08:31:46.832Z,11.65
2023-10-01T08:34:25.210Z,11.23
2023-10-01T08:36:57.262Z,11.05
2023-10-01T08:39:54.179Z,10.00
2023-10-01T08:42:30.514Z,10.48
2023-10-01T08:45:08.314Z,10.30
2023-10-01T08:47:36.504Z,9.88
2023-10-01T08:50:24.890Z,9.68
2023-10-01T08:53:02.998Z,10.45
2023-10-01T08:56:02.718Z,9.50
2023-10-01T08:58:43.271Z,8.68
2023-10-01T09:01:14.241Z,10.80
2023-10-01T09:03:50.466Z,11.00
2023-10-01T09:06:34.117Z,10.63
2023-10-01T09:09:21.336Z,9.10
2023-10-01T09:11:52.317Z,9.43
2023-10-01T09:14:36.107Z,9.70
2023-10-01T09:17:26.440Z,9.65
2023-10-01T09:19:55.923Z,10.10
2023-10-01T09:22:42.025Z,7.80
2023-10-01T09:25:32.199Z,7.85
2023-10-01T09:28:21.491Z,8.70
2023-10-01T09:31:27.921Z,7.07
2023-10-01T09:33:57.383Z,7.78
2023-10-01T09:36:47.289Z,7.28
2023-10-01T09:39:24.386Z,7.25
2023-10-01T09:41:55.068Z,7.97
2023-10-01T09:44:23.519Z,7.15
2023-10-01T09:47:08.785Z,7.22
2023-10-01T09:49:40.397Z,6.45
2023-10-01T09:52:09.119Z,6.30
2023-10-01T09:54:42.941Z,6.22
2023-10-01T09:57:11.078Z,6.53
2023-10-01T09:59:40.888Z,6.80
2023-10-01T10:02:09.588Z,6.72
2023-10-01T10:04:40.543Z,6.13
2023-10-01T10:07:10.426Z,6.78
2023-10-01T10:09:39.244Z,5.75
2023-10-01T10:12:09.391Z,5.43
2023-10-01T10:14:38.204Z,5.07
2023-10-01T10:17:19.454Z,5.95
2023-10-01T10:20:41.512Z,5.50
2023-10-01T10:23:15.245Z,5.28
2023-10-01T10:25:45.233Z,5.70
2023-10-01T10:28:26.193Z,5.22
2023-10-01T10:31:13.186Z,5.82
2023-10-01T10:34:01.053Z,5.38
2023-10-01T10:36:36.329Z,5.57
2023-10-01T10:39:17.691Z,5.18
2023-10-01T10:42:06.566Z,5.70
2023-10-01T10:44:35.623Z,5.50
2023-10-01T10:47:03.989Z,5.30
2023-10-01T10:49:50.771Z,4.68
2023-10-01T10:52:33.358Z,4.80
2023-10-01T10:55:18.390Z,6.32
2023-10-01T10:57:49.807Z,4.57
2023-10-01T11:00:29.345Z,5.30
2023-10-01T11:03:00.638Z,5.22
2023-10-01T11:05:31.797Z,4.53
2023-10-01T11:08:00.403Z,4.97
2023-10-01T11:10:28.766Z,5.00
2023-10-01T11:12:56.989Z,5.20
2023-10-01T11:15:36.515Z,4.78
2023-10-01T11:18:10.801Z,4.93
2023-10-01T11:20:46.727Z,4.72
2023-10-01T11:23:18.179Z,4.50
2023-10-01T11:25:49.389Z,5.60
2023-10-01T11:28:17.536Z,5.13
2023-10-01T11:30:45.512Z,4.93
2023-10-01T11:33:15.061Z,4.93
2023-10-01T11:36:01.032Z,4.80
2023-10-01T11:38:33.551Z,4.57
2023-10-01T11:41:09.599Z,4.55
2023-10-01T11:43:43.935Z,4.80
2023-10-01T11:46:22.585Z,4.88
2023-10-01T11:48:59.185Z,4.97
2023-10-01T11:51:47.676Z,5.20
2023-10-01T11:54:18.872Z,5.05
2023-10-01T11:56:47.960Z,4.82
2023-10-01T11:59:19.813Z,5.03
2023-10-01T12:01:49.131Z,4.75
2023-10-01T12:04:23.435Z,5.18
2023-10-01T12:06:52.397Z,5.30
2023-10-01T12:09:20.355Z,5.57
2023-10-01T12:12:04.905Z,5.15
2023-10-01T12:14:33.704Z,5.00
2023-10-01T12:17:02.538Z,4.90
2023-10-01T12:19:34.099Z,5.43
2023-10-01T12:22:08.240Z,5.70
2023-10-01T12:24:46.535Z,5.90
2023-10-01T12:27:34.661Z,5.80
2023-10-01T12:30:02.665Z,5.28
2023-10-01T12:32:43.133Z,5.65
2023-10-01T12:35:41.931Z,5.50
2023-10-01T12:38:18.862Z,5.50
2023-10-01T12:40:53.972Z,5.57
2023-10-01T12:43:38.887Z,5.60
2023-10-01T12:46:20.029Z,5.68
2023-10-01T12:49:14.022Z,5.82
2023-10-01T12:51:42.484Z,5.85
2023-10-01T12:54:10.566Z,5.25
2023-10-01T12:56:49.826Z,5.53
2023-10-01T12:59:21.143Z,5.35
2023-10-01T13:01:53.281Z,5.55
2023-10-01T13:04:27.080Z,5.85
2023-10-01T13:07:05.618Z,5.78
2023-10-01T13:09:54.378Z,5.55
2023-10-01T13:12:27.850Z,5.70
2023-10-01T13:15:14.694Z,5.30
2023-10-01T13:17:46.156Z,5.88
2023-10-01T13:20:24.503Z,6.07
2023-10-01T13:23:08.377Z,5.65
2023-10-01T13:25:38.268Z,5.57
2023-10-01T13:28:07.058Z,5.40
2023-10-01T13:30:59.412Z,5.40
2023-10-01T13:33:47.778Z,5.25
2023-10-01T13:36:24.864Z,5.20
2023-10-01T13:38:55.572Z,5.20
2023-10-01T13:41:23.896Z,6.20
2023-10-01T13:44:10.922Z,5.18
2023-10-01T13:46:58.387Z,5.75
2023-10-01T13:49:45.337Z,5.25
2023-10-01T13:52:32.429Z,5.38
2023-10-01T13:55:19.174Z,5.15
2023-10-01T13:58:05.804Z,5.32
2023-10-01T14:00:52.794Z,5.05
2023-10-01T14:03:39.447Z,5.03
2023-10-01T14:06:26.103Z,5.18
2023-10-01T14:08:54.269Z,5.35
2023-10-01T14:11:28.749Z,4.30
2023-10-01T14:13:57.258Z,4.32
2023-10-01T14:16:25.815Z,5.43
2023-10-01T14:19:15.086Z,4.75
2023-10-01T14:21:43.142Z,5.43
2023-10-01T14:24:23.162Z,5.13
2023-10-01T14:26:52.263Z,5.07
2023-10-01T14:29:26.233Z,5.55
2023-10-01T14:31:54.538Z,5.82
2023-10-01T14:34:23.433Z,6.43
2023-10-01T14:37:01.854Z,5.90
2023-10-01T14:39:33.141Z,5.80
2023-10-01T14:42:01.321Z,5.93
2023-10-01T14:44:29.464Z,5.88
2023-10-01T14:46:59.716Z,6.13
2023-10-01T14:49:29.156Z,5.72
2023-10-01T14:51:58.283Z,6.22
2023-10-01T14:54:27.118Z,5.97
2023-10-01T14:56:58.551Z,6.05
2023-10-01T14:59:33.849Z,6.50
2023-10-01T15:02:06.245Z,5.63
2023-10-01T15:04:37.649Z,5.45
2023-10-01T15:07:07.297Z,6.05
2023-10-01T15:09:39.970Z,5.47
2023-10-01T15:12:27.486Z,4.83
2023-10-01T15:15:03.676Z,5.57
2023-10-01T15:17:38.092Z,5.75
2023-10-01T15:20:06.786Z,5.50
2023-10-01T15:22:45.431Z,5.47
2023-10-01T15:25:14.090Z,5.53
2023-10-01T15:27:42.341Z,5.78
2023-10-01T15:30:22.695Z,5.90
2023-10-01T15:33:01.737Z,5.75
2023-10-01T15:35:32.019Z,5.85
2023-10-01T15:38:02.392Z,5.65
2023-10-01T15:40:36.255Z,5.40
2023-10-01T15:43:04.259Z,6.10
2023-10-01T15:45:45.296Z,5.10
2023-10-01T15:48:19.088Z,5.55
2023-10-01T15:50:47.955Z,6.20
2023-10-01T15:53:19.688Z,5.85
2023-10-01T15:55:57.490Z,5.50
2023-10-01T15:58:25.808Z,6.40
2023-10-01T16:00:55.364Z,5.80
2023-10-01T16:03:34.169Z,6.20
2023-10-01T16:06:11.924Z,5.72
2023-10-01T16:08:45.193Z,6.20
2023-10-01T16:11:14.771Z,5.55
2023-10-01T16:13:55.124Z,6.00
2023-10-01T16:16:28.624Z,6.88
2023-10-01T16:18:57.026Z,6.05
2023-10-01T16:21:25.628Z,5.95
2023-10-01T16:23:57.580Z,6.72
2023-10-01T16:26:26.384Z,6.15
2023-10-01T16:28:56.898Z,6.00
2023-10-01T16:31:27.868Z,5.60
2023-10-01T16:34:01.550Z,6.18
2023-10-01T16:36:40.199Z,6.88
2023-10-01T16:39:18.888Z,6.40
2023-10-01T16:41:48.589Z,6.30
2023-10-01T16:44:16.772Z,6.35
2023-10-01T16:46:46.284Z,6.72
2023-10-01T16:49:14.629Z,6.38
2023-10-01T16:51:45.198Z,6.93
2023-10-01T16:54:15.290Z,6.25
2023-10-01T16:56:48.946Z,6.97
2023-10-01T17:01:53.691Z,6.30
2023-10-01T17:04:28.286Z,7.80
2023-10-01T17:06:59.638Z,7.43
2023-10-01T17:09:28.121Z,7.80
2023-10-01T17:12:03.822Z,8.98
2023-10-01T17:14:37.082Z,10.32
2023-10-01T17:17:05.834Z,13.38
2023-10-01T17:19:35.200Z,12.20
2023-10-01T17:22:11.669Z,12.10
2023-10-01T17:24:46.016Z,9.02
2023-10-01T17:27:18.096Z,8.27
2023-10-01T17:29:56.120Z,8.70
2023-10-01T17:32:27.611Z,8.65
2023-10-01T17:34:59.156Z,9.55
2023-10-01T17:37:27.556Z,9.27
2023-10-01T17:39:57.563Z,9.05
2023-10-01T17:42:30.417Z,8.05
2023-10-01T17:45:06.881Z,7.80
2023-10-01T17:47:35.388Z,8.07
2023-10-01T17:50:05.988Z,7.97
2023-10-01T17:52:37.071Z,7.75
2023-10-01T17:55:07.126Z,8.63
2023-10-01T17:57:41.294Z,7.72
2023-10-01T18:00:15.381Z,7.80
2023-10-01T18:02:44.121Z,7.43
2023-10-01T18:05:21.141Z,11.13
2023-10-01T18:08:05.887Z,7.95
2023-10-01T18:10:45.930Z,7.25
2023-10-01T18:13:23.909Z,7.88
2023-10-01T18:15:56.911Z,7.80
2023-10-01T18:18:27.409Z,8.93
2023-10-01T18:20:56.887Z,8.13
2023-10-01T18:23:26.123Z,39.40
2023-10-01T18:25:56.132Z,31.25
2023-10-01T18:28:25.686Z,16.88
2023-10-01T18:30:55.786Z,10.10
2023-10-01T18:33:27.179Z,13.23
2023-10-01T18:35:59.021Z,19.52
2023-10-01T18:38:32.092Z,7.82
2023-10-01T18:43:32.906Z,20.83
2023-10-01T18:46:02.451Z,12.05
2023-10-01T18:48:39.947Z,10.25
2023-10-01T18:51:12.847Z,12.05
2023-10-01T18:53:42.611Z,7.82
2023-10-01T18:56:12.817Z,19.48
2023-10-01T18:58:42.687Z,17.50
2023-10-01T19:01:12.849Z,11.60
2023-10-01T19:03:47.087Z,8.63
2023-10-01T19:06:19.832Z,8.38
2023-10-01T19:08:48.089Z,8.82
2023-10-01T19:11:16.260Z,14.88
2023-10-01T19:13:45.543Z,27.20
2023-10-01T19:16:13.885Z,9.73
2023-10-01T19:18:41.893Z,8.10
2023-10-01T19:21:09.823Z,8.27
2023-10-01T19:23:42.191Z,9.15
2023-10-01T19:26:18.832Z,8.60
2023-10-01T19:28:48.135Z,9.00
2023-10-01T19:31:16.494Z,8.35
2023-10-01T19:33:45.477Z,8.43
2023-10-01T19:36:18.339Z,7.93
2023-10-01T19:38:48.769Z,9.75
2023-10-01T19:41:19.740Z,8.52
2023-10-01T19:43:52.190Z,8.85
2023-10-01T19:46:20.288Z,9.52
2023-10-01T19:48:57.289Z,10.23
2023-10-01T19:51:26.185Z,9.70
2023-10-01T19:54:08.834Z,9.30
2023-10-01T19:56:37.500Z,8.95
2023-10-01T19:59:11.800Z,8.55
2023-10-01T20:01:44.852Z,8.90
2023-10-01T20:04:15.237Z,9.00
2023-10-01T20:06:47.248Z,9.30
2023-10-01T20:09:25.256Z,8.88
2023-10-01T20:11:57.893Z,8.80
2023-10-01T20:14:37.077Z,10.52
2023-10-01T20:17:07.882Z,9.32
2023-10-01T20:19:36.162Z,10.30
2023-10-01T20:22:21.284Z,9.07
2023-10-01T20:24:52.952Z,10.02
2023-10-01T20:27:22.121Z,9.38
2023-10-01T20:29:50.449Z,10.02
2023-10-01T20:32:23.407Z,9.70
2023-10-01T20:34:52.216Z,9.98
2023-10-01T20:37:20.386Z,9.68
2023-10-01T20:39:48.954Z,9.23
2023-10-01T20:42:19.916Z,9.13
2023-10-01T20:44:51.529Z,8.50
2023-10-01T20:47:23.952Z,9.60
2023-10-01T20:49:55.390Z,9.70
2023-10-01T20:52:32.225Z,9.73
2023-10-01T20:55:19.701Z,9.48
2023-10-01T20:57:49.423Z,9.95
2023-10-01T21:00:36.241Z,10.20
2023-10-01T21:03:04.288Z,9.90
2023-10-01T21:05:34.523Z,9.73
2023-10-01T21:08:13.849Z,9.80
2023-10-01T21:10:42.529Z,9.23
2023-10-01T21:13:11.356Z,9.90
2023-10-01T21:15:42.458Z,9.75
2023-10-01T21:18:13.644Z,9.88
2023-10-01T21:20:45.267Z,10.55
2023-10-01T21:23:16.185Z,10.60
2023-10-01T21:25:49.802Z,9.63
2023-10-01T21:28:20.848Z,9.88
2023-10-01T21:30:48.998Z,10.32
2023-10-01T21:33:18.208Z,10.57
2023-10-01T21:35:47.246Z,9.75
2023-10-01T21:38:26.071Z,9.75
2023-10-01T21:40:54.739Z,10.55
2023-10-01T21:43:26.542Z,10.85
2023-10-01T21:46:03.419Z,9.95
2023-10-01T21:48:31.837Z,9.65
2023-10-01T21:51:03.935Z,10.30
2023-10-01T21:53:35.549Z,10.23
2023-10-01T21:56:07.964Z,10.15
2023-10-01T21:58:38.814Z,10.18
2023-10-01T22:01:26.197Z,9.70
2023-10-01T22:03:54.363Z,9.75
2023-10-01T22:06:31.022Z,9.43
2023-10-01T22:08:59.612Z,9.48
2023-10-01T22:11:29.400Z,9.98
2023-10-01T22:14:04.984Z,9.30
2023-10-01T22:16:48.509Z,9.25
2023-10-01T22:19:19.549Z,10.15
2023-10-01T22:21:51.096Z,9.73
2023-10-01T22:24:22.985Z,9.48
2023-10-01T22:26:52.375Z,9.98
2023-10-01T22:29:22.364Z,9.77
2023-10-01T22:31:56.201Z,10.10
2023-10-01T22:34:26.587Z,10.63
2023-10-01T22:36:57.203Z,9.55
2023-10-01T22:39:38.685Z,9.85
2023-10-01T22:42:27.849Z,9.65
2023-10-01T22:45:09.220Z,9.60
2023-10-01T22:47:42.493Z,9.77
2023-10-01T22:50:14.698Z,10.60
2023-10-01T22:52:46.164Z,10.27
2023-10-01T22:55:14.423Z,11.23
2023-10-01T22:57:44.228Z,10.32
2023-10-01T23:00:13.907Z,10.68
2023-10-01T23:02:48.926Z,11.32
2023-10-01T23:05:18.353Z,11.23
2023-10-01T23:07:50.425Z,10.98
2023-10-01T23:10:26.227Z,10.52
2023-10-01T23:13:13.061Z,10.45
2023-10-01T23:15:41.172Z,10.95
2023-10-01T23:18:19.519Z,10.57
2023-10-01T23:20:51.990Z,10.77
2023-10-01T23:23:30.994Z,11.85
2023-10-01T23:26:06.157Z,10.45
2023-10-01T23:28:42.843Z,11.18
2023-10-01T23:31:17.012Z,11.68
2023-10-01T23:33:52.210Z,10.23
2023-10-01T23:36:20.311Z,10.73
2023-10-01T23:38:57.479Z,10.32
2023-10-01T23:41:44.552Z,10.52
2023-10-01T23:44:13.239Z,10.40
2023-10-01T23:46:41.475Z,10.27
2023-10-01T23:49:13.166Z,10.57
2023-10-01T23:51:42.486Z,10.60
2023-10-01T23:54:11.214Z,10.38
2023-10-01T23:56:42.408Z,10.65
2023-10-01T23:59:27.399Z,9.52
